Cranbourne Gardens, Victoria

6:54 AM AEST on August 03, 2015 (GMT +1000)
VK3FDRG - CRANBOURNE WEST | | Change Station
CLOSE
Current Station
Personal Weather Station
Location: Cranbourne, VICTORIA
Elevation: 190 ft
Nearby Weather Stations

Elev 190 ft 38.11 °S, 145.26 °E | Updated 4 minutes ago

Mostly Cloudy
Mostly Cloudy
45.5 °F
Feels Like 41 °F
N
8.3
Wind Variable Wind from North
Gusts 23.5 mph

Today
High -- | Low -- °F
--% Chance of Precip.
Yesterday
High -- | Low -- °F
Precip. -- in
7:18 AM 5:32 PM
Waning Gibbous, 92% visible
Pressure 29.95 in
Visibility 6.2 miles
Clouds Few 1500 ft
Scattered Clouds 2700 ft
Mostly Cloudy 3800 ft
Windchill 41 °F
Dew Point 40 °F
Humidity 80%
Rainfall 0.25 in
Snow Depth Not available.
UV 0 out of 12
Pollen Not available.
Air Quality Not available.
Flu Activity Not available.
SPECI YMML 022038Z 26018KT 9999 VCSH FEW015 SCT027 BKN038 08/03 Q1014 RMK MODERATE SHEAR REPORTED AT 100 FEET ON LANDING/ UNDER SHOOT MAIN RUNWAY FM2038 MOD/SEV TURB BLW 5000FT FM2130 MOD TURB BLW 5000FT INTER 2038/2200 26025G40KT 4000 SHRA BKN020

More Conditions Fewer Conditions

Pressure 29.95 in
Visibility 6.2 miles
Clouds Few 1500 ft
Scattered Clouds 2700 ft
Mostly Cloudy 3800 ft
Windchill 41 °F
Dew Point 40 °F
Humidity 80%
Rainfall 0.25 in
Snow Depth Not available.
UV 0 out of 12
Pollen Not available.
Air Quality Not available.
Flu Activity Not available.
SPECI YMML 022038Z 26018KT 9999 VCSH FEW015 SCT027 BKN038 08/03 Q1014 RMK MODERATE SHEAR REPORTED AT 100 FEET ON LANDING/ UNDER SHOOT MAIN RUNWAY FM2038 MOD/SEV TURB BLW 5000FT FM2130 MOD TURB BLW 5000FT INTER 2038/2200 26025G40KT 4000 SHRA BKN020

More Conditions Fewer Conditions

10-Day Weather Forecast

×

Almanac

Astronomy

Aug. 03, 2015 Rise Set
Actual Time
Civil Twilight
Nautical Twilight
Astronomical Twilight
Moon
Length of Visible Light
Length of Day
Tomorrow will be .
, % of the Moon is Illuminated

Today's Extremes

Country Highs Country Lows

Community

WunderPhotos

Upload Photos

1,843,371 photos uploaded!

WunderBlogs® & News

Nearby

Air Quality

  Air Quality AQ Index Pollutant
Not available.

Snow Depth

Station Depth Elevation

Earthquake Activity

City Distance Mag. Time & Date
Minimum magnitude displayed is 2.5.

Coastal Water Temperatures

Place Temperature

Stations

Nearby Weather Stations

Station Location Temp. Windchill Dew Point Humidity Wind Precip. Elev Updated Type